createdAt,value
2018-10-12T00:00:37.789Z,11.43
2018-10-12T00:03:06.191Z,11.10
2018-10-12T00:05:34.107Z,11.70
2018-10-12T00:08:02.367Z,11.70
2018-10-12T00:10:30.315Z,11.77
2018-10-12T00:12:58.254Z,11.10
2018-10-12T00:15:26.240Z,11.43
2018-10-12T00:17:54.228Z,10.83
2018-10-12T00:20:22.178Z,11.50
2018-10-12T00:22:50.134Z,11.03
2018-10-12T00:25:18.095Z,11.50
2018-10-12T00:27:46.082Z,11.20
2018-10-12T00:30:14.034Z,11.50
2018-10-12T00:32:42.615Z,11.83
2018-10-12T00:35:10.668Z,11.40
2018-10-12T00:37:38.594Z,11.43
2018-10-12T00:40:06.543Z,11.70
2018-10-12T00:42:34.579Z,11.93
2018-10-12T00:45:02.514Z,12.43
2018-10-12T00:47:30.468Z,11.13
2018-10-12T00:49:58.410Z,11.70
2018-10-12T00:52:26.383Z,12.13
2018-10-12T00:54:54.664Z,11.77
2018-10-12T00:57:22.658Z,11.23
2018-10-12T00:59:50.599Z,10.93
2018-10-12T01:02:18.567Z,11.80
2018-10-12T01:04:46.520Z,12.47
2018-10-12T01:07:14.540Z,11.47
2018-10-12T01:09:42.499Z,12.77
2018-10-12T01:12:34.580Z,11.70
2018-10-12T01:15:02.991Z,11.77
2018-10-12T01:17:31.689Z,12.60
2018-10-12T01:20:00.031Z,13.20
2018-10-12T01:22:29.056Z,13.07
2018-10-12T01:24:58.043Z,13.03
2018-10-12T01:27:26.419Z,12.63
2018-10-12T01:29:54.711Z,13.03
2018-10-12T01:32:28.123Z,11.90
2018-10-12T01:34:56.140Z,12.00
2018-10-12T01:37:24.442Z,11.83
2018-10-12T01:39:52.392Z,12.10
2018-10-12T01:42:24.230Z,12.10
2018-10-12T01:44:52.175Z,12.87
2018-10-12T01:47:20.184Z,12.07
2018-10-12T01:49:48.114Z,12.30
2018-10-12T01:52:16.086Z,12.40
2018-10-12T01:54:44.089Z,12.57
2018-10-12T01:57:12.907Z,13.20
2018-10-12T01:59:40.870Z,12.90
2018-10-12T02:02:09.115Z,13.67
2018-10-12T02:04:37.058Z,12.70
2018-10-12T02:07:05.042Z,12.77
2018-10-12T02:09:33.026Z,12.97
2018-10-12T02:12:00.968Z,12.63
2018-10-12T02:14:30.032Z,13.23
2018-10-12T02:16:58.310Z,14.00
2018-10-12T02:19:26.259Z,13.07
2018-10-12T02:21:54.188Z,12.70
2018-10-12T02:24:22.136Z,13.20
2018-10-12T02:26:50.120Z,12.30
2018-10-12T02:29:18.372Z,13.20
2018-10-12T02:31:46.376Z,13.37
2018-10-12T02:34:14.320Z,13.77
2018-10-12T02:36:42.268Z,13.07
2018-10-12T02:39:12.392Z,12.87
2018-10-12T02:41:40.629Z,13.47
2018-10-12T02:44:08.671Z,15.00
2018-10-12T02:46:36.906Z,13.13
2018-10-12T02:49:05.607Z,13.30
2018-10-12T02:51:33.550Z,12.33
2018-10-12T02:54:01.527Z,14.93
2018-10-12T02:56:29.463Z,14.53
2018-10-12T02:58:57.795Z,13.30
2018-10-12T03:01:25.744Z,13.67
2018-10-12T03:03:53.780Z,14.37
2018-10-12T03:06:21.722Z,14.13
2018-10-12T03:08:49.661Z,13.90
2018-10-12T03:11:17.687Z,13.90
2018-10-12T03:13:45.691Z,14.00
2018-10-12T03:16:14.207Z,14.30
2018-10-12T03:18:42.576Z,14.63
2018-10-12T03:21:10.531Z,15.00
2018-10-12T03:23:38.462Z,15.10
2018-10-12T03:26:06.503Z,14.07
2018-10-12T03:28:35.786Z,14.33
2018-10-12T03:31:07.959Z,14.33
2018-10-12T03:33:36.436Z,15.50
2018-10-12T03:36:04.815Z,15.83
2018-10-12T03:38:32.835Z,14.93
2018-10-12T03:41:00.802Z,14.57
2018-10-12T03:43:28.726Z,17.37
2018-10-12T03:45:56.670Z,16.17
2018-10-12T03:48:24.662Z,16.90
2018-10-12T03:50:52.614Z,15.60
2018-10-12T03:53:20.561Z,15.80
2018-10-12T03:55:48.511Z,14.80
2018-10-12T03:58:16.483Z,14.90
2018-10-12T04:00:44.443Z,14.47
2018-10-12T04:03:12.419Z,14.70
2018-10-12T04:05:40.346Z,16.00
2018-10-12T04:08:08.299Z,15.50
2018-10-12T04:10:36.252Z,15.57
2018-10-12T04:13:04.191Z,15.53
2018-10-12T04:15:32.544Z,15.70
2018-10-12T04:18:00.490Z,15.40
2018-10-12T04:20:28.422Z,16.10
2018-10-12T04:22:56.419Z,16.03
2018-10-12T04:25:24.350Z,16.17
2018-10-12T04:27:52.311Z,14.53
2018-10-12T04:30:20.248Z,16.13
2018-10-12T04:32:48.195Z,16.60
2018-10-12T04:35:16.152Z,15.47
2018-10-12T04:37:44.111Z,17.00
2018-10-12T04:45:48.308Z,15.53
2018-10-12T04:48:16.270Z,15.17
2018-10-12T04:50:44.229Z,15.63
2018-10-12T04:53:12.227Z,17.50
2018-10-12T04:55:40.267Z,19.10
2018-10-12T04:58:08.471Z,17.20
2018-10-12T05:00:36.449Z,16.20
2018-10-12T05:03:04.377Z,15.83
2018-10-12T05:05:32.699Z,16.67
2018-10-12T05:08:00.659Z,16.23
2018-10-12T05:10:28.664Z,16.33
2018-10-12T05:12:56.615Z,16.07
2018-10-12T05:15:24.956Z,16.53
2018-10-12T05:17:52.919Z,15.73
2018-10-12T05:20:20.884Z,16.03
2018-10-12T05:22:48.852Z,16.33
2018-10-12T05:25:16.809Z,16.13
2018-10-12T05:27:44.761Z,15.83
2018-10-12T05:30:12.819Z,16.07
2018-10-12T05:32:40.711Z,16.63
2018-10-12T05:35:08.946Z,16.60
2018-10-12T05:37:36.992Z,16.47
2018-10-12T05:40:05.586Z,16.23
2018-10-12T05:42:33.638Z,15.77
2018-10-12T05:45:01.667Z,17.00
2018-10-12T05:47:29.932Z,16.27
2018-10-12T05:50:01.277Z,16.80
2018-10-12T05:52:29.637Z,16.43
2018-10-12T05:54:58.223Z,16.97
2018-10-12T05:57:26.274Z,17.10
2018-10-12T05:59:54.316Z,18.60
2018-10-12T06:02:22.366Z,16.40
2018-10-12T06:04:50.342Z,15.97
2018-10-12T06:07:18.275Z,16.33
2018-10-12T06:09:46.323Z,16.17
2018-10-12T06:12:14.203Z,16.10
2018-10-12T06:14:42.158Z,16.67
2018-10-12T06:17:10.094Z,17.97
2018-10-12T06:19:38.341Z,15.93
2018-10-12T06:22:06.600Z,16.77
2018-10-12T06:24:34.553Z,15.67
2018-10-12T06:27:02.498Z,15.33
2018-10-12T06:29:30.539Z,16.03
2018-10-12T06:31:58.506Z,15.00
2018-10-12T06:34:26.777Z,15.33
2018-10-12T06:36:54.743Z,16.90
2018-10-12T06:39:22.707Z,16.67
2018-10-12T06:41:50.844Z,17.33
2018-10-12T06:44:18.705Z,15.17
2018-10-12T06:46:47.022Z,15.00
2018-10-12T06:49:14.998Z,15.67
2018-10-12T06:51:42.957Z,16.03
2018-10-12T06:54:11.444Z,15.50
2018-10-12T06:56:39.386Z,15.50
2018-10-12T06:59:07.499Z,14.93
2018-10-12T07:01:35.476Z,15.00
2018-10-12T07:04:03.436Z,16.23
2018-10-12T07:06:31.428Z,18.10
2018-10-12T07:08:59.410Z,16.90
2018-10-12T07:11:27.351Z,16.27
2018-10-12T07:13:55.365Z,17.47
2018-10-12T07:16:23.235Z,16.50
2018-10-12T07:18:51.176Z,16.80
2018-10-12T07:21:19.128Z,15.47
2018-10-12T07:23:47.136Z,16.37
2018-10-12T07:26:15.091Z,17.27
2018-10-12T07:28:43.021Z,16.57
2018-10-12T07:31:10.984Z,15.40
2018-10-12T07:33:38.922Z,15.73
2018-10-12T07:36:06.966Z,15.33
2018-10-12T07:38:35.207Z,15.77
2018-10-12T07:41:03.219Z,14.77
2018-10-12T07:43:31.222Z,16.37
2018-10-12T07:45:59.159Z,15.57
2018-10-12T07:48:27.088Z,15.57
2018-10-12T07:50:55.036Z,14.67
2018-10-12T07:53:23.072Z,15.70
2018-10-12T07:55:50.966Z,14.90
2018-10-12T07:58:18.915Z,16.63
2018-10-12T08:00:46.877Z,16.00
2018-10-12T08:03:15.118Z,16.30
2018-10-12T08:05:43.053Z,17.40
2018-10-12T08:08:11.027Z,16.50
2018-10-12T08:10:39.010Z,17.30
2018-10-12T08:13:07.048Z,15.50
2018-10-12T08:15:35.256Z,14.93
2018-10-12T08:18:03.197Z,17.20
2018-10-12T08:20:31.222Z,16.27
2018-10-12T08:22:59.126Z,17.23
2018-10-12T08:25:27.067Z,15.83
2018-10-12T08:27:55.050Z,17.10
2018-10-12T08:30:23.014Z,16.10
2018-10-12T08:32:51.042Z,18.27
2018-10-12T08:35:18.995Z,18.63
2018-10-12T08:37:46.942Z,16.27
2018-10-12T08:40:14.894Z,16.80
2018-10-12T08:42:42.846Z,16.10
2018-10-12T08:45:10.796Z,15.70
2018-10-12T08:47:38.799Z,14.93
2018-10-12T08:50:07.050Z,16.00
2018-10-12T08:52:34.991Z,15.60
2018-10-12T08:55:02.961Z,20.47
2018-10-12T08:57:30.924Z,17.23
2018-10-12T08:59:58.899Z,18.27
2018-10-12T09:02:26.838Z,16.13
2018-10-12T09:04:54.763Z,15.60
2018-10-12T09:07:22.731Z,15.73
2018-10-12T09:09:50.684Z,13.43
2018-10-12T09:12:18.621Z,14.60
2018-10-12T09:14:46.556Z,15.97
2018-10-12T09:17:14.635Z,15.07
2018-10-12T09:19:42.580Z,19.00
2018-10-12T09:22:10.871Z,18.43
2018-10-12T09:24:38.906Z,15.40
2018-10-12T09:27:06.904Z,16.23
2018-10-12T09:29:34.855Z,14.53
2018-10-12T09:32:02.799Z,15.43
2018-10-12T09:34:30.844Z,15.23
2018-10-12T09:36:58.822Z,15.80
2018-10-12T09:39:26.776Z,15.87
2018-10-12T09:41:54.727Z,15.90
2018-10-12T09:44:22.671Z,17.07
2018-10-12T09:46:50.891Z,16.20
2018-10-12T09:49:18.890Z,15.23
2018-10-12T09:51:50.709Z,14.77
2018-10-12T09:54:18.973Z,15.43
2018-10-12T09:56:51.213Z,15.43
2018-10-12T09:59:19.156Z,17.73
2018-10-12T10:01:52.804Z,15.87
2018-10-12T10:04:26.185Z,15.07
2018-10-12T10:06:54.126Z,14.57
2018-10-12T10:09:22.070Z,13.80
2018-10-12T10:11:50.031Z,14.20
2018-10-12T10:14:17.971Z,13.63
2018-10-12T10:16:45.903Z,15.23
2018-10-12T10:19:13.929Z,15.20
2018-10-12T10:21:41.922Z,16.50
2018-10-12T10:26:44.410Z,14.93
2018-10-12T10:29:12.394Z,14.40
2018-10-12T10:31:40.362Z,14.57
2018-10-12T10:34:08.498Z,15.70
2018-10-12T10:36:36.343Z,14.13
2018-10-12T10:39:05.975Z,15.87
2018-10-12T10:41:33.849Z,15.33
2018-10-12T10:44:01.821Z,15.20
2018-10-12T10:46:29.840Z,14.97
2018-10-12T10:48:57.885Z,14.13
2018-10-12T10:51:27.602Z,15.53
2018-10-12T10:53:55.542Z,14.70
2018-10-12T10:56:23.531Z,15.00
2018-10-12T10:58:51.556Z,18.17
2018-10-12T11:01:19.579Z,14.23
2018-10-12T11:03:47.538Z,14.50
2018-10-12T11:06:15.676Z,14.73
2018-10-12T11:08:43.606Z,13.23
2018-10-12T11:11:11.554Z,20.80
2018-10-12T11:13:39.504Z,18.90
2018-10-12T11:16:07.540Z,16.77
2018-10-12T11:18:35.617Z,14.87
2018-10-12T11:21:03.565Z,15.13
2018-10-12T11:23:31.523Z,19.27
2018-10-12T11:25:59.447Z,14.93
2018-10-12T11:28:27.479Z,14.70
2018-10-12T11:30:55.413Z,12.57
2018-10-12T11:33:23.397Z,13.70
2018-10-12T11:35:51.342Z,16.60
2018-10-12T11:38:26.230Z,14.50
2018-10-12T11:40:54.074Z,14.00
2018-10-12T11:43:27.000Z,13.67
2018-10-12T11:45:54.994Z,13.77
2018-10-12T11:48:22.951Z,14.27
2018-10-12T11:50:51.123Z,14.37
2018-10-12T11:53:23.003Z,12.67
2018-10-12T11:55:50.948Z,14.37
2018-10-12T11:58:18.987Z,14.73
2018-10-12T12:00:46.953Z,16.57
2018-10-12T12:03:14.889Z,18.37
2018-10-12T12:05:42.819Z,20.33
2018-10-12T12:08:11.257Z,13.47
2018-10-12T12:10:39.697Z,17.70
2018-10-12T12:13:07.795Z,21.33
2018-10-12T12:15:35.955Z,16.83
2018-10-12T12:18:03.902Z,21.70
2018-10-12T12:20:31.869Z,17.80
2018-10-12T12:22:59.854Z,15.53
2018-10-12T12:25:27.808Z,15.50
2018-10-12T12:27:55.776Z,15.00
2018-10-12T12:30:23.925Z,15.23
2018-10-12T12:32:51.754Z,13.53
2018-10-12T12:35:20.036Z,12.20
2018-10-12T12:37:47.727Z,13.43
2018-10-12T12:40:15.658Z,22.17
2018-10-12T12:42:43.595Z,21.63
2018-10-12T12:45:11.557Z,14.40
2018-10-12T12:47:39.898Z,17.10
2018-10-12T12:50:07.751Z,18.63
2018-10-12T12:52:36.013Z,13.83
2018-10-12T12:55:04.083Z,12.10
2018-10-12T12:57:32.057Z,20.20
2018-10-12T13:00:00.173Z,13.73
2018-10-12T13:02:28.035Z,11.93
2018-10-12T13:04:55.970Z,16.03
2018-10-12T13:07:24.192Z,13.20
2018-10-12T13:09:52.135Z,11.00
2018-10-12T13:12:20.091Z,11.87
2018-10-12T13:14:48.088Z,11.77
2018-10-12T13:17:16.159Z,12.47
2018-10-12T13:19:44.188Z,11.87
2018-10-12T13:22:12.150Z,11.10
2018-10-12T13:24:40.146Z,12.13
2018-10-12T13:27:08.373Z,11.87
2018-10-12T13:29:36.381Z,11.57
2018-10-12T13:32:04.384Z,12.77
2018-10-12T13:34:32.308Z,12.10
2018-10-12T13:37:00.263Z,11.33
2018-10-12T13:39:28.204Z,12.50
2018-10-12T13:41:56.193Z,13.03
2018-10-12T13:44:24.139Z,11.13
2018-10-12T13:46:52.108Z,13.07
2018-10-12T13:49:20.108Z,13.23
2018-10-12T13:51:48.424Z,11.47
2018-10-12T13:54:16.411Z,12.03
2018-10-12T13:56:44.332Z,11.63
2018-10-12T13:59:12.635Z,11.50
2018-10-12T14:01:40.575Z,11.03
2018-10-12T14:04:08.515Z,14.03
2018-10-12T14:06:36.507Z,12.67
2018-10-12T14:09:06.144Z,11.53
2018-10-12T14:11:34.098Z,12.27
2018-10-12T14:14:02.056Z,12.43
2018-10-12T14:16:29.994Z,12.33
2018-10-12T14:18:58.165Z,13.50
2018-10-12T14:21:25.894Z,13.17
2018-10-12T14:23:53.870Z,13.20
2018-10-12T14:26:28.279Z,13.07
2018-10-12T14:28:56.304Z,11.93
2018-10-12T14:31:24.401Z,12.70
2018-10-12T14:33:52.226Z,12.63
2018-10-12T14:36:20.194Z,13.37
2018-10-12T14:38:48.166Z,12.67
2018-10-12T14:41:16.129Z,12.93
2018-10-12T14:43:44.302Z,12.53
2018-10-12T14:46:12.117Z,12.27
2018-10-12T14:48:40.061Z,11.83
2018-10-12T14:51:08.191Z,10.60
2018-10-12T14:53:36.718Z,11.13
2018-10-12T14:56:04.736Z,10.50
2018-10-12T14:58:32.700Z,11.70
2018-10-12T15:01:00.751Z,12.17
2018-10-12T15:03:28.684Z,11.17
2018-10-12T15:05:56.623Z,10.67
2018-10-12T15:08:24.579Z,12.17
2018-10-12T15:10:55.838Z,12.87
2018-10-12T15:13:23.785Z,14.37
2018-10-12T15:15:51.726Z,15.60
2018-10-12T15:18:19.665Z,15.77
2018-10-12T15:20:47.661Z,12.87
2018-10-12T15:23:15.572Z,11.87
2018-10-12T15:25:43.592Z,12.73
2018-10-12T15:28:11.596Z,14.63
2018-10-12T15:30:39.520Z,14.13
2018-10-12T15:33:07.482Z,14.30
2018-10-12T15:35:35.437Z,14.10
2018-10-12T15:38:03.493Z,20.17
2018-10-12T15:40:31.484Z,16.67
2018-10-12T15:42:59.550Z,14.70
2018-10-12T15:45:27.385Z,13.83
2018-10-12T15:47:55.451Z,13.20
2018-10-12T15:50:23.417Z,11.67
2018-10-12T15:52:51.356Z,12.13
2018-10-12T15:55:19.307Z,11.93
2018-10-12T15:57:47.256Z,12.67
2018-10-12T16:00:15.270Z,13.10
2018-10-12T16:02:43.269Z,12.53
2018-10-12T16:05:11.237Z,15.23
2018-10-12T16:07:39.501Z,14.40
2018-10-12T16:10:07.435Z,20.67
2018-10-12T16:12:35.383Z,16.20
2018-10-12T16:15:03.349Z,14.53
2018-10-12T16:17:31.584Z,14.50
2018-10-12T16:19:59.523Z,15.90
2018-10-12T16:22:27.573Z,13.07
2018-10-12T16:25:07.071Z,14.20
2018-10-12T16:27:35.081Z,17.93
2018-10-12T16:30:03.169Z,13.73
2018-10-12T16:32:31.125Z,14.47
2018-10-12T16:34:59.135Z,17.23
2018-10-12T16:37:27.096Z,16.67
2018-10-12T16:39:55.072Z,15.13
2018-10-12T16:42:23.022Z,19.97
2018-10-12T16:44:51.043Z,21.00
2018-10-12T16:47:19.082Z,15.37
2018-10-12T16:49:47.021Z,14.90
2018-10-12T16:52:21.753Z,13.17
2018-10-12T16:54:50.027Z,13.57
2018-10-12T16:57:22.235Z,13.73
2018-10-12T16:59:50.211Z,14.63
2018-10-12T17:02:18.237Z,13.80
2018-10-12T17:04:46.266Z,14.00
2018-10-12T17:07:14.275Z,13.87
2018-10-12T17:09:42.291Z,14.67
2018-10-12T17:12:10.525Z,14.07
2018-10-12T17:14:38.478Z,15.13
2018-10-12T17:17:06.938Z,15.03
2018-10-12T17:19:34.892Z,17.40
2018-10-12T17:22:02.878Z,16.47
2018-10-12T17:24:30.915Z,16.13
2018-10-12T17:26:58.880Z,14.77
2018-10-12T17:29:26.836Z,14.80
2018-10-12T17:31:54.829Z,15.30
2018-10-12T17:34:22.808Z,15.63
2018-10-12T17:36:50.761Z,15.77
2018-10-12T17:39:18.690Z,14.20
2018-10-12T17:41:46.754Z,14.60
2018-10-12T17:44:15.042Z,14.90
2018-10-12T17:46:43.079Z,14.07
2018-10-12T17:49:11.177Z,15.60
2018-10-12T17:51:39.158Z,17.10
2018-10-12T17:54:07.131Z,15.73
2018-10-12T17:56:35.403Z,16.13
2018-10-12T17:59:03.340Z,15.53
2018-10-12T18:01:31.344Z,16.20
2018-10-12T18:03:59.289Z,17.20
2018-10-12T18:06:27.310Z,16.93
2018-10-12T18:08:55.330Z,16.40
2018-10-12T18:11:23.270Z,17.17
2018-10-12T18:13:51.256Z,15.47
2018-10-12T18:16:19.317Z,15.00
2018-10-12T18:18:47.514Z,15.37
2018-10-12T18:21:15.459Z,15.57
2018-10-12T18:23:43.750Z,14.53
2018-10-12T18:26:11.821Z,14.80
2018-10-12T18:28:39.780Z,14.23
2018-10-12T18:31:07.843Z,14.33
2018-10-12T18:33:36.182Z,16.13
2018-10-12T18:36:04.130Z,17.50
2018-10-12T18:38:32.090Z,15.30
2018-10-12T18:41:00.038Z,15.90
2018-10-12T18:43:28.060Z,16.60
2018-10-12T18:45:56.079Z,16.10
2018-10-12T18:48:24.053Z,17.37
2018-10-12T18:50:52.010Z,17.47
2018-10-12T18:53:19.939Z,17.30
2018-10-12T18:55:47.905Z,17.33
2018-10-12T18:58:15.838Z,16.77
2018-10-12T19:00:43.776Z,17.47
2018-10-12T19:03:11.719Z,18.00
2018-10-12T19:05:39.655Z,17.63
2018-10-12T19:08:07.650Z,17.00
2018-10-12T19:10:35.659Z,18.70
2018-10-12T19:13:03.639Z,18.13
2018-10-12T19:15:31.650Z,18.33
2018-10-12T19:17:59.566Z,18.13
2018-10-12T19:20:27.827Z,18.57
2018-10-12T19:22:55.777Z,18.50
2018-10-12T19:25:23.725Z,19.53
2018-10-12T19:27:51.684Z,19.23
2018-10-12T19:30:19.631Z,19.00
2018-10-12T19:32:47.583Z,19.57
2018-10-12T19:35:15.523Z,18.90
2018-10-12T19:37:43.464Z,19.03
2018-10-12T19:40:11.779Z,18.90
2018-10-12T19:42:39.975Z,19.73
2018-10-12T19:45:07.906Z,18.53
2018-10-12T19:47:35.879Z,20.07
2018-10-12T19:50:04.155Z,20.87
2018-10-12T19:52:32.098Z,20.20
2018-10-12T19:55:00.056Z,20.70
2018-10-12T19:57:28.290Z,20.27
2018-10-12T19:59:56.228Z,19.83
2018-10-12T20:02:24.171Z,19.73
2018-10-12T20:04:52.167Z,20.33
2018-10-12T20:07:20.112Z,19.67
2018-10-12T20:09:48.058Z,21.23
2018-10-12T20:12:16.008Z,21.00
2018-10-12T20:14:43.946Z,22.10
2018-10-12T20:17:12.840Z,20.60
2018-10-12T20:19:40.770Z,21.93
2018-10-12T20:22:09.623Z,20.57
2018-10-12T20:24:37.807Z,20.83
2018-10-12T20:27:05.767Z,19.60
2018-10-12T20:29:33.718Z,20.30
2018-10-12T20:32:01.726Z,19.60
2018-10-12T20:34:29.684Z,19.43
2018-10-12T20:36:57.650Z,20.10
2018-10-12T20:39:25.614Z,19.80
2018-10-12T20:41:53.572Z,18.70
2018-10-12T20:44:21.630Z,19.07
2018-10-12T20:46:49.677Z,19.80
2018-10-12T20:49:17.606Z,20.20
2018-10-12T20:51:45.571Z,19.80
2018-10-12T20:54:13.518Z,19.73
2018-10-12T20:56:41.476Z,18.97
2018-10-12T20:59:09.435Z,18.93
2018-10-12T21:01:37.386Z,19.33
2018-10-12T21:04:05.723Z,19.93
2018-10-12T21:06:33.630Z,20.03
2018-10-12T21:09:01.601Z,18.47
2018-10-12T21:11:29.557Z,19.27
2018-10-12T21:13:57.834Z,19.87
2018-10-12T21:16:25.774Z,20.10
2018-10-12T21:18:53.778Z,20.17
2018-10-12T21:21:22.035Z,19.87
2018-10-12T21:23:50.015Z,19.57
2018-10-12T21:26:17.972Z,22.40
2018-10-12T21:28:45.930Z,21.40
2018-10-12T21:31:13.898Z,21.13
2018-10-12T21:33:41.860Z,20.60
2018-10-12T21:36:09.834Z,19.83
2018-10-12T21:38:37.782Z,20.30
2018-10-12T21:41:05.779Z,18.27
2018-10-12T21:43:34.630Z,19.60
2018-10-12T21:46:02.849Z,18.27
2018-10-12T21:48:30.881Z,19.43
2018-10-12T21:50:58.848Z,18.97
2018-10-12T21:53:26.827Z,18.73
2018-10-12T21:55:54.789Z,18.43
2018-10-12T21:58:22.744Z,18.10
2018-10-12T22:00:56.160Z,18.73
2018-10-12T22:03:24.101Z,18.70
2018-10-12T22:05:52.051Z,19.07
2018-10-12T22:08:25.660Z,18.43
2018-10-12T22:10:53.651Z,17.97
2018-10-12T22:13:21.628Z,18.13
2018-10-12T22:15:49.696Z,17.87
2018-10-12T22:18:17.660Z,18.47
2018-10-12T22:20:45.603Z,18.13
2018-10-12T22:23:13.583Z,18.13
2018-10-12T22:25:41.813Z,17.53
2018-10-12T22:28:09.832Z,17.77
2018-10-12T22:30:37.811Z,18.53
2018-10-12T22:33:06.005Z,18.20
2018-10-12T22:35:33.945Z,19.20
2018-10-12T22:38:01.896Z,18.43
2018-10-12T22:40:29.876Z,18.27
2018-10-12T22:42:57.916Z,18.63
2018-10-12T22:45:26.204Z,18.83
2018-10-12T22:47:54.189Z,18.57
2018-10-12T22:50:22.280Z,18.80
2018-10-12T22:52:50.343Z,17.73
2018-10-12T22:55:18.389Z,18.77
2018-10-12T22:57:46.407Z,16.90
2018-10-12T23:00:14.529Z,18.30
2018-10-12T23:02:42.500Z,18.67
2018-10-12T23:05:10.434Z,17.90
2018-10-12T23:07:38.745Z,18.30
2018-10-12T23:10:07.015Z,19.43
2018-10-12T23:12:35.022Z,17.70
2018-10-12T23:15:03.275Z,18.03
2018-10-12T23:17:31.285Z,18.37
2018-10-12T23:19:59.236Z,18.27
2018-10-12T23:22:27.351Z,19.07
2018-10-12T23:24:55.296Z,17.27
2018-10-12T23:27:23.247Z,18.77
2018-10-12T23:29:51.496Z,18.60
2018-10-12T23:32:19.509Z,17.23
2018-10-12T23:34:47.451Z,19.00
2018-10-12T23:37:15.407Z,19.37
2018-10-12T23:39:43.379Z,18.20
2018-10-12T23:42:11.368Z,19.27
2018-10-12T23:44:39.326Z,18.37
2018-10-12T23:47:07.284Z,19.27
2018-10-12T23:49:35.232Z,18.30
2018-10-12T23:52:03.164Z,18.07
2018-10-12T23:54:31.111Z,18.67
2018-10-12T23:56:59.060Z,17.77
2018-10-12T23:59:27.372Z,18.37
